sensor_id;sensor_type;location;lat;lon;timestamp;temperature;humidity
30063;DHT22;16889;67.864;24.990;2023-07-29T00:00:04;12.40;99.90
30063;DHT22;16889;67.864;24.990;2023-07-29T00:04:52;12.40;99.90
30063;DHT22;16889;67.864;24.990;2023-07-29T00:09:38;12.50;99.90
30063;DHT22;16889;67.864;24.990;2023-07-29T00:14:24;12.50;99.90
30063;DHT22;16889;67.864;24.990;2023-07-29T00:19:10;12.50;99.90
30063;DHT22;16889;67.864;24.990;2023-07-29T00:23:55;12.40;99.90
30063;DHT22;16889;67.864;24.990;2023-07-29T00:28:43;12.40;99.90
30063;DHT22;16889;67.864;24.990;2023-07-29T00:33:29;12.40;99.90
30063;DHT22;16889;67.864;24.990;2023-07-29T00:38:15;12.40;99.90
30063;DHT22;16889;67.864;24.990;2023-07-29T00:43:01;12.40;99.90
30063;DHT22;16889;67.864;24.990;2023-07-29T00:47:47;12.40;99.90
30063;DHT22;16889;67.864;24.990;2023-07-29T00:52:33;12.40;99.90
30063;DHT22;16889;67.864;24.990;2023-07-29T00:57:20;12.40;99.90
30063;DHT22;16889;67.864;24.990;2023-07-29T01:02:07;12.30;99.90
30063;DHT22;16889;67.864;24.990;2023-07-29T01:07:12;12.40;99.90
30063;DHT22;16889;67.864;24.990;2023-07-29T01:17:09;12.40;99.90
30063;DHT22;16889;67.864;24.990;2023-07-29T01:21:59;12.50;99.90
30063;DHT22;16889;67.864;24.990;2023-07-29T01:26:46;12.60;99.90
30063;DHT22;16889;67.864;24.990;2023-07-29T01:31:40;12.60;99.90
30063;DHT22;16889;67.864;24.990;2023-07-29T01:36:31;12.70;99.90
30063;DHT22;16889;67.864;24.990;2023-07-29T01:41:20;12.70;99.90
30063;DHT22;16889;67.864;24.990;2023-07-29T01:46:07;12.80;99.90
30063;DHT22;16889;67.864;24.990;2023-07-29T01:50:53;12.90;99.90
30063;DHT22;16889;67.864;24.990;2023-07-29T01:55:40;13.10;99.90
30063;DHT22;16889;67.864;24.990;2023-07-29T02:00:26;13.20;99.90
30063;DHT22;16889;67.864;24.990;2023-07-29T02:05:12;13.30;99.90
30063;DHT22;16889;67.864;24.990;2023-07-29T02:09:58;13.50;99.90
30063;DHT22;16889;67.864;24.990;2023-07-29T02:14:44;13.50;99.90
30063;DHT22;16889;67.864;24.990;2023-07-29T02:19:30;13.70;99.90
30063;DHT22;16889;67.864;24.990;2023-07-29T02:24:16;13.80;99.90
30063;DHT22;16889;67.864;24.990;2023-07-29T02:29:02;14.10;99.90
30063;DHT22;16889;67.864;24.990;2023-07-29T02:33:48;14.70;99.90
30063;DHT22;16889;67.864;24.990;2023-07-29T02:38:35;15.10;99.90
30063;DHT22;16889;67.864;24.990;2023-07-29T02:43:21;15.20;99.90
30063;DHT22;16889;67.864;24.990;2023-07-29T02:48:07;15.20;99.90
30063;DHT22;16889;67.864;24.990;2023-07-29T02:52:52;15.20;99.90
30063;DHT22;16889;67.864;24.990;2023-07-29T02:57:38;15.50;99.90
30063;DHT22;16889;67.864;24.990;2023-07-29T03:02:24;15.50;99.90
30063;DHT22;16889;67.864;24.990;2023-07-29T03:07:10;15.70;99.90
30063;DHT22;16889;67.864;24.990;2023-07-29T03:11:57;15.70;99.90
30063;DHT22;16889;67.864;24.990;2023-07-29T03:16:43;15.70;99.90
30063;DHT22;16889;67.864;24.990;2023-07-29T03:21:29;15.70;99.90
30063;DHT22;16889;67.864;24.990;2023-07-29T03:26:15;15.80;99.90
30063;DHT22;16889;67.864;24.990;2023-07-29T03:31:01;15.80;99.90
30063;DHT22;16889;67.864;24.990;2023-07-29T03:35:47;15.80;99.90
30063;DHT22;16889;67.864;24.990;2023-07-29T03:40:33;15.80;99.90
30063;DHT22;16889;67.864;24.990;2023-07-29T03:45:22;15.90;99.90
30063;DHT22;16889;67.864;24.990;2023-07-29T03:50:09;16.00;99.90
30063;DHT22;16889;67.864;24.990;2023-07-29T03:54:55;16.00;99.90
30063;DHT22;16889;67.864;24.990;2023-07-29T03:59:41;16.10;99.90
30063;DHT22;16889;67.864;24.990;2023-07-29T04:04:27;16.20;99.90
30063;DHT22;16889;67.864;24.990;2023-07-29T04:09:13;16.20;99.90
30063;DHT22;16889;67.864;24.990;2023-07-29T04:13:59;16.20;99.90
30063;DHT22;16889;67.864;24.990;2023-07-29T04:18:45;16.20;99.90
30063;DHT22;16889;67.864;24.990;2023-07-29T04:23:31;16.30;99.90
30063;DHT22;16889;67.864;24.990;2023-07-29T04:28:17;16.30;99.90
30063;DHT22;16889;67.864;24.990;2023-07-29T04:33:03;16.40;99.90
30063;DHT22;16889;67.864;24.990;2023-07-29T04:37:49;16.40;99.90
30063;DHT22;16889;67.864;24.990;2023-07-29T04:42:37;16.40;99.90
30063;DHT22;16889;67.864;24.990;2023-07-29T04:47:23;16.40;99.90
30063;DHT22;16889;67.864;24.990;2023-07-29T04:52:09;16.60;99.90
30063;DHT22;16889;67.864;24.990;2023-07-29T04:56:55;16.70;99.90
30063;DHT22;16889;67.864;24.990;2023-07-29T05:01:41;16.70;99.90
30063;DHT22;16889;67.864;24.990;2023-07-29T05:06:28;16.70;99.90
30063;DHT22;16889;67.864;24.990;2023-07-29T05:11:14;16.70;99.90
30063;DHT22;16889;67.864;24.990;2023-07-29T05:16:00;16.50;99.90
30063;DHT22;16889;67.864;24.990;2023-07-29T05:20:47;16.40;99.90
30063;DHT22;16889;67.864;24.990;2023-07-29T05:25:33;16.30;99.90
30063;DHT22;16889;67.864;24.990;2023-07-29T05:30:20;16.30;99.90
30063;DHT22;16889;67.864;24.990;2023-07-29T05:35:06;16.20;99.90
30063;DHT22;16889;67.864;24.990;2023-07-29T05:39:53;16.10;99.90
30063;DHT22;16889;67.864;24.990;2023-07-29T05:44:39;16.10;99.90
30063;DHT22;16889;67.864;24.990;2023-07-29T05:49:24;16.00;99.90
30063;DHT22;16889;67.864;24.990;2023-07-29T05:54:10;16.10;99.90
30063;DHT22;16889;67.864;24.990;2023-07-29T05:58:56;16.10;99.90
30063;DHT22;16889;67.864;24.990;2023-07-29T06:03:42;16.10;99.90
30063;DHT22;16889;67.864;24.990;2023-07-29T06:08:28;16.00;99.90
30063;DHT22;16889;67.864;24.990;2023-07-29T06:13:15;16.00;99.90
30063;DHT22;16889;67.864;24.990;2023-07-29T06:18:01;16.00;99.90
30063;DHT22;16889;67.864;24.990;2023-07-29T06:22:46;16.00;99.90
30063;DHT22;16889;67.864;24.990;2023-07-29T06:27:32;16.00;99.90
30063;DHT22;16889;67.864;24.990;2023-07-29T06:32:18;15.90;99.90
30063;DHT22;16889;67.864;24.990;2023-07-29T06:37:04;15.80;99.90
30063;DHT22;16889;67.864;24.990;2023-07-29T06:41:50;15.70;99.90
30063;DHT22;16889;67.864;24.990;2023-07-29T06:46:36;15.50;99.90
30063;DHT22;16889;67.864;24.990;2023-07-29T06:51:22;15.40;99.90
30063;DHT22;16889;67.864;24.990;2023-07-29T06:56:08;15.30;99.90
30063;DHT22;16889;67.864;24.990;2023-07-29T07:00:54;15.20;99.90
30063;DHT22;16889;67.864;24.990;2023-07-29T07:05:40;15.20;99.90
30063;DHT22;16889;67.864;24.990;2023-07-29T07:10:26;15.10;99.90
30063;DHT22;16889;67.864;24.990;2023-07-29T07:15:12;15.10;99.90
30063;DHT22;16889;67.864;24.990;2023-07-29T07:19:58;15.10;99.90
30063;DHT22;16889;67.864;24.990;2023-07-29T07:24:44;15.00;99.90
30063;DHT22;16889;67.864;24.990;2023-07-29T07:29:30;15.00;99.90
30063;DHT22;16889;67.864;24.990;2023-07-29T07:34:16;15.00;99.90
30063;DHT22;16889;67.864;24.990;2023-07-29T07:39:02;14.90;99.90
30063;DHT22;16889;67.864;24.990;2023-07-29T07:43:48;15.10;99.90
30063;DHT22;16889;67.864;24.990;2023-07-29T07:48:34;15.10;99.90
30063;DHT22;16889;67.864;24.990;2023-07-29T07:53:20;15.10;99.90
30063;DHT22;16889;67.864;24.990;2023-07-29T07:58:06;15.20;99.90
30063;DHT22;16889;67.864;24.990;2023-07-29T08:02:52;15.40;99.90
30063;DHT22;16889;67.864;24.990;2023-07-29T08:07:38;15.40;99.90
30063;DHT22;16889;67.864;24.990;2023-07-29T08:12:24;15.50;99.90
30063;DHT22;16889;67.864;24.990;2023-07-29T08:17:10;15.50;99.90
30063;DHT22;16889;67.864;24.990;2023-07-29T08:21:56;15.50;99.90
30063;DHT22;16889;67.864;24.990;2023-07-29T08:26:41;15.40;99.90
30063;DHT22;16889;67.864;24.990;2023-07-29T08:31:27;15.40;99.90
30063;DHT22;16889;67.864;24.990;2023-07-29T08:36:13;15.40;99.90
30063;DHT22;16889;67.864;24.990;2023-07-29T08:46:00;15.30;99.90
30063;DHT22;16889;67.864;24.990;2023-07-29T08:50:47;15.30;99.90
30063;DHT22;16889;67.864;24.990;2023-07-29T08:55:33;15.30;99.90
30063;DHT22;16889;67.864;24.990;2023-07-29T09:00:20;15.20;99.90
30063;DHT22;16889;67.864;24.990;2023-07-29T09:05:07;15.10;99.90
30063;DHT22;16889;67.864;24.990;2023-07-29T09:09:53;15.00;99.90
30063;DHT22;16889;67.864;24.990;2023-07-29T09:14:39;15.00;99.90
30063;DHT22;16889;67.864;24.990;2023-07-29T09:19:26;14.90;99.90
30063;DHT22;16889;67.864;24.990;2023-07-29T09:24:16;14.90;99.90
30063;DHT22;16889;67.864;24.990;2023-07-29T09:29:03;14.80;99.90
30063;DHT22;16889;67.864;24.990;2023-07-29T09:33:50;14.80;99.90
30063;DHT22;16889;67.864;24.990;2023-07-29T09:38:43;14.80;99.90
30063;DHT22;16889;67.864;24.990;2023-07-29T09:43:31;14.80;99.90
30063;DHT22;16889;67.864;24.990;2023-07-29T09:48:22;14.70;99.90
30063;DHT22;16889;67.864;24.990;2023-07-29T09:53:08;14.80;99.90
30063;DHT22;16889;67.864;24.990;2023-07-29T09:57:57;14.70;99.90
30063;DHT22;16889;67.864;24.990;2023-07-29T10:02:48;14.60;99.90
30063;DHT22;16889;67.864;24.990;2023-07-29T10:07:38;14.50;99.90
30063;DHT22;16889;67.864;24.990;2023-07-29T10:12:25;14.30;99.90
30063;DHT22;16889;67.864;24.990;2023-07-29T10:17:11;14.20;99.90
30063;DHT22;16889;67.864;24.990;2023-07-29T10:22:00;14.20;99.90
30063;DHT22;16889;67.864;24.990;2023-07-29T10:26:50;14.20;99.90
30063;DHT22;16889;67.864;24.990;2023-07-29T10:31:37;14.10;99.90
30063;DHT22;16889;67.864;24.990;2023-07-29T10:36:24;13.90;99.90
30063;DHT22;16889;67.864;24.990;2023-07-29T10:41:10;13.80;99.90
30063;DHT22;16889;67.864;24.990;2023-07-29T10:45:56;13.80;99.90
30063;DHT22;16889;67.864;24.990;2023-07-29T10:50:42;13.80;99.90
30063;DHT22;16889;67.864;24.990;2023-07-29T10:55:33;13.80;99.90
30063;DHT22;16889;67.864;24.990;2023-07-29T11:00:21;13.80;99.90
30063;DHT22;16889;67.864;24.990;2023-07-29T11:05:18;13.80;99.90
30063;DHT22;16889;67.864;24.990;2023-07-29T11:10:04;13.90;99.90
30063;DHT22;16889;67.864;24.990;2023-07-29T11:14:51;13.90;99.90
30063;DHT22;16889;67.864;24.990;2023-07-29T11:19:38;13.90;99.90
30063;DHT22;16889;67.864;24.990;2023-07-29T11:24:24;13.90;99.90
30063;DHT22;16889;67.864;24.990;2023-07-29T11:29:10;13.80;99.90
30063;DHT22;16889;67.864;24.990;2023-07-29T11:33:56;13.80;99.90
30063;DHT22;16889;67.864;24.990;2023-07-29T11:38:42;13.80;99.90
30063;DHT22;16889;67.864;24.990;2023-07-29T11:43:28;13.80;99.90
30063;DHT22;16889;67.864;24.990;2023-07-29T11:48:14;13.80;99.90
30063;DHT22;16889;67.864;24.990;2023-07-29T11:53:00;13.80;99.90
30063;DHT22;16889;67.864;24.990;2023-07-29T11:57:51;13.90;99.90
30063;DHT22;16889;67.864;24.990;2023-07-29T12:02:39;13.90;99.90
30063;DHT22;16889;67.864;24.990;2023-07-29T12:07:25;13.80;99.90
30063;DHT22;16889;67.864;24.990;2023-07-29T12:12:11;13.80;99.90
30063;DHT22;16889;67.864;24.990;2023-07-29T12:17:04;13.70;99.90
30063;DHT22;16889;67.864;24.990;2023-07-29T12:21:51;13.70;99.90
30063;DHT22;16889;67.864;24.990;2023-07-29T12:26:37;13.70;99.90
30063;DHT22;16889;67.864;24.990;2023-07-29T12:31:31;13.60;99.90
30063;DHT22;16889;67.864;24.990;2023-07-29T12:36:18;13.50;99.90
30063;DHT22;16889;67.864;24.990;2023-07-29T12:41:04;13.60;99.90
30063;DHT22;16889;67.864;24.990;2023-07-29T12:45:50;13.70;99.90
30063;DHT22;16889;67.864;24.990;2023-07-29T12:50:37;13.80;99.90
30063;DHT22;16889;67.864;24.990;2023-07-29T12:55:23;13.70;99.90
30063;DHT22;16889;67.864;24.990;2023-07-29T13:00:12;13.80;99.90
30063;DHT22;16889;67.864;24.990;2023-07-29T13:04:58;13.90;99.90
30063;DHT22;16889;67.864;24.990;2023-07-29T13:09:44;13.90;99.90
30063;DHT22;16889;67.864;24.990;2023-07-29T13:14:30;13.90;99.90
30063;DHT22;16889;67.864;24.990;2023-07-29T13:19:16;13.90;99.90
30063;DHT22;16889;67.864;24.990;2023-07-29T13:24:04;14.00;99.90
30063;DHT22;16889;67.864;24.990;2023-07-29T13:28:49;14.10;99.90
30063;DHT22;16889;67.864;24.990;2023-07-29T13:33:35;14.10;99.90
30063;DHT22;16889;67.864;24.990;2023-07-29T13:38:22;14.00;99.90
30063;DHT22;16889;67.864;24.990;2023-07-29T13:43:08;14.00;99.90
30063;DHT22;16889;67.864;24.990;2023-07-29T13:47:54;14.00;99.90
30063;DHT22;16889;67.864;24.990;2023-07-29T13:52:41;14.00;99.90
30063;DHT22;16889;67.864;24.990;2023-07-29T13:57:27;14.10;99.90
30063;DHT22;16889;67.864;24.990;2023-07-29T14:02:13;14.10;99.90
30063;DHT22;16889;67.864;24.990;2023-07-29T14:07:00;14.10;99.90
30063;DHT22;16889;67.864;24.990;2023-07-29T14:11:47;14.10;99.90
30063;DHT22;16889;67.864;24.990;2023-07-29T14:16:33;14.20;99.90
30063;DHT22;16889;67.864;24.990;2023-07-29T14:21:18;14.20;99.90
30063;DHT22;16889;67.864;24.990;2023-07-29T14:26:04;14.30;99.90
30063;DHT22;16889;67.864;24.990;2023-07-29T14:30:50;14.40;99.90
30063;DHT22;16889;67.864;24.990;2023-07-29T14:35:36;14.40;99.90
30063;DHT22;16889;67.864;24.990;2023-07-29T14:40:22;14.30;99.90
30063;DHT22;16889;67.864;24.990;2023-07-29T14:45:08;14.30;99.90
30063;DHT22;16889;67.864;24.990;2023-07-29T14:49:54;14.30;99.90
30063;DHT22;16889;67.864;24.990;2023-07-29T14:54:41;14.30;99.90
30063;DHT22;16889;67.864;24.990;2023-07-29T14:59:28;14.30;99.90
30063;DHT22;16889;67.864;24.990;2023-07-29T15:04:14;14.20;99.90
30063;DHT22;16889;67.864;24.990;2023-07-29T15:09:00;14.20;99.90
30063;DHT22;16889;67.864;24.990;2023-07-29T15:13:46;14.10;99.90
30063;DHT22;16889;67.864;24.990;2023-07-29T15:18:32;13.90;99.90
30063;DHT22;16889;67.864;24.990;2023-07-29T15:23:19;13.90;99.90
30063;DHT22;16889;67.864;24.990;2023-07-29T15:28:05;13.80;99.90
30063;DHT22;16889;67.864;24.990;2023-07-29T15:32:51;13.80;99.90
30063;DHT22;16889;67.864;24.990;2023-07-29T15:37:37;13.90;99.90
30063;DHT22;16889;67.864;24.990;2023-07-29T15:42:24;13.80;99.90
30063;DHT22;16889;67.864;24.990;2023-07-29T15:47:10;13.80;99.90
30063;DHT22;16889;67.864;24.990;2023-07-29T15:52:02;13.80;99.90
30063;DHT22;16889;67.864;24.990;2023-07-29T15:56:47;13.90;99.90
30063;DHT22;16889;67.864;24.990;2023-07-29T16:01:34;14.00;99.90
30063;DHT22;16889;67.864;24.990;2023-07-29T16:06:20;14.00;99.90
30063;DHT22;16889;67.864;24.990;2023-07-29T16:11:06;14.00;99.90
30063;DHT22;16889;67.864;24.990;2023-07-29T16:15:52;14.10;99.90
30063;DHT22;16889;67.864;24.990;2023-07-29T16:20:38;14.10;99.90
30063;DHT22;16889;67.864;24.990;2023-07-29T16:25:24;14.00;99.90
30063;DHT22;16889;67.864;24.990;2023-07-29T16:30:10;14.00;99.90
30063;DHT22;16889;67.864;24.990;2023-07-29T16:34:56;13.90;99.90
30063;DHT22;16889;67.864;24.990;2023-07-29T16:39:42;13.90;99.90
30063;DHT22;16889;67.864;24.990;2023-07-29T16:44:28;13.90;99.90
30063;DHT22;16889;67.864;24.990;2023-07-29T16:49:14;13.90;99.90
30063;DHT22;16889;67.864;24.990;2023-07-29T16:54:01;13.90;99.90
30063;DHT22;16889;67.864;24.990;2023-07-29T16:58:46;13.90;99.90
30063;DHT22;16889;67.864;24.990;2023-07-29T17:03:32;14.00;99.90
30063;DHT22;16889;67.864;24.990;2023-07-29T17:08:18;14.00;99.90
30063;DHT22;16889;67.864;24.990;2023-07-29T17:13:04;14.00;99.90
30063;DHT22;16889;67.864;24.990;2023-07-29T17:17:50;13.90;99.90
30063;DHT22;16889;67.864;24.990;2023-07-29T17:22:37;14.00;99.90
30063;DHT22;16889;67.864;24.990;2023-07-29T17:27:23;13.90;99.90
30063;DHT22;16889;67.864;24.990;2023-07-29T17:32:09;13.80;99.90
30063;DHT22;16889;67.864;24.990;2023-07-29T17:36:55;13.70;99.90
30063;DHT22;16889;67.864;24.990;2023-07-29T17:41:41;13.80;99.90
30063;DHT22;16889;67.864;24.990;2023-07-29T17:46:27;13.70;99.90
30063;DHT22;16889;67.864;24.990;2023-07-29T17:51:13;13.70;99.90
30063;DHT22;16889;67.864;24.990;2023-07-29T17:55:59;13.60;99.90
30063;DHT22;16889;67.864;24.990;2023-07-29T18:00:45;13.60;99.90
30063;DHT22;16889;67.864;24.990;2023-07-29T18:05:31;13.50;99.90
30063;DHT22;16889;67.864;24.990;2023-07-29T18:10:17;13.40;99.90
30063;DHT22;16889;67.864;24.990;2023-07-29T18:15:03;13.50;99.90
30063;DHT22;16889;67.864;24.990;2023-07-29T18:19:51;13.50;99.90
30063;DHT22;16889;67.864;24.990;2023-07-29T18:24:42;13.40;99.90
30063;DHT22;16889;67.864;24.990;2023-07-29T18:29:32;13.40;99.90
30063;DHT22;16889;67.864;24.990;2023-07-29T18:34:18;13.40;99.90
30063;DHT22;16889;67.864;24.990;2023-07-29T18:39:04;13.30;99.90
30063;DHT22;16889;67.864;24.990;2023-07-29T18:43:51;13.30;99.90
30063;DHT22;16889;67.864;24.990;2023-07-29T18:48:43;13.30;99.90
30063;DHT22;16889;67.864;24.990;2023-07-29T18:53:29;13.30;99.90
30063;DHT22;16889;67.864;24.990;2023-07-29T18:58:15;13.30;99.90
30063;DHT22;16889;67.864;24.990;2023-07-29T19:03:01;13.30;99.90
30063;DHT22;16889;67.864;24.990;2023-07-29T19:07:47;13.30;99.90
30063;DHT22;16889;67.864;24.990;2023-07-29T19:12:33;13.30;99.90
30063;DHT22;16889;67.864;24.990;2023-07-29T19:17:19;13.30;99.90
30063;DHT22;16889;67.864;24.990;2023-07-29T19:22:05;13.30;99.90
30063;DHT22;16889;67.864;24.990;2023-07-29T19:26:51;13.20;99.90
30063;DHT22;16889;67.864;24.990;2023-07-29T19:31:37;13.20;99.90
30063;DHT22;16889;67.864;24.990;2023-07-29T19:36:23;13.20;99.90
30063;DHT22;16889;67.864;24.990;2023-07-29T19:41:09;13.20;99.90
30063;DHT22;16889;67.864;24.990;2023-07-29T19:45:56;13.20;99.90
30063;DHT22;16889;67.864;24.990;2023-07-29T19:50:42;13.20;99.90
30063;DHT22;16889;67.864;24.990;2023-07-29T19:55:28;13.20;99.90
30063;DHT22;16889;67.864;24.990;2023-07-29T20:00:16;13.20;99.90
30063;DHT22;16889;67.864;24.990;2023-07-29T20:05:02;13.20;99.90
30063;DHT22;16889;67.864;24.990;2023-07-29T20:09:48;13.20;99.90
30063;DHT22;16889;67.864;24.990;2023-07-29T20:14:34;13.20;99.90
30063;DHT22;16889;67.864;24.990;2023-07-29T20:19:20;13.10;99.90
30063;DHT22;16889;67.864;24.990;2023-07-29T20:24:06;13.10;99.90
30063;DHT22;16889;67.864;24.990;2023-07-29T20:28:52;13.10;99.90
30063;DHT22;16889;67.864;24.990;2023-07-29T20:33:38;13.10;99.90
30063;DHT22;16889;67.864;24.990;2023-07-29T20:38:26;13.20;99.90
30063;DHT22;16889;67.864;24.990;2023-07-29T20:43:12;13.10;99.90
30063;DHT22;16889;67.864;24.990;2023-07-29T20:47:58;13.20;99.90
30063;DHT22;16889;67.864;24.990;2023-07-29T20:52:44;13.20;99.90
30063;DHT22;16889;67.864;24.990;2023-07-29T20:57:30;13.10;99.90
30063;DHT22;16889;67.864;24.990;2023-07-29T21:02:16;13.10;99.90
30063;DHT22;16889;67.864;24.990;2023-07-29T21:07:02;13.20;99.90
30063;DHT22;16889;67.864;24.990;2023-07-29T21:11:48;13.20;99.90
30063;DHT22;16889;67.864;24.990;2023-07-29T21:16:34;13.20;99.90
30063;DHT22;16889;67.864;24.990;2023-07-29T21:21:20;13.20;99.90
30063;DHT22;16889;67.864;24.990;2023-07-29T21:26:06;13.20;99.90
30063;DHT22;16889;67.864;24.990;2023-07-29T21:30:51;13.20;99.90
30063;DHT22;16889;67.864;24.990;2023-07-29T21:35:38;13.30;99.90
30063;DHT22;16889;67.864;24.990;2023-07-29T21:40:23;13.20;99.90
30063;DHT22;16889;67.864;24.990;2023-07-29T21:45:10;13.20;99.90
30063;DHT22;16889;67.864;24.990;2023-07-29T21:49:56;13.20;99.90
30063;DHT22;16889;67.864;24.990;2023-07-29T21:54:42;13.30;99.90
30063;DHT22;16889;67.864;24.990;2023-07-29T21:59:28;13.30;99.90
30063;DHT22;16889;67.864;24.990;2023-07-29T22:04:14;13.30;99.90
30063;DHT22;16889;67.864;24.990;2023-07-29T22:09:00;13.30;99.90
30063;DHT22;16889;67.864;24.990;2023-07-29T22:13:45;13.30;99.90
30063;DHT22;16889;67.864;24.990;2023-07-29T22:18:31;13.30;99.90
30063;DHT22;16889;67.864;24.990;2023-07-29T22:23:17;13.30;99.90
30063;DHT22;16889;67.864;24.990;2023-07-29T22:28:03;13.40;99.90
30063;DHT22;16889;67.864;24.990;2023-07-29T22:32:49;13.40;99.90
30063;DHT22;16889;67.864;24.990;2023-07-29T22:37:35;13.40;99.90
30063;DHT22;16889;67.864;24.990;2023-07-29T22:42:21;13.40;99.90
30063;DHT22;16889;67.864;24.990;2023-07-29T22:47:07;13.40;99.90
30063;DHT22;16889;67.864;24.990;2023-07-29T22:51:53;13.40;99.90
30063;DHT22;16889;67.864;24.990;2023-07-29T22:56:39;13.30;99.90
30063;DHT22;16889;67.864;24.990;2023-07-29T23:01:25;13.40;99.90
30063;DHT22;16889;67.864;24.990;2023-07-29T23:06:11;13.50;99.90
30063;DHT22;16889;67.864;24.990;2023-07-29T23:11:02;13.50;99.90
30063;DHT22;16889;67.864;24.990;2023-07-29T23:15:48;13.50;99.90
30063;DHT22;16889;67.864;24.990;2023-07-29T23:20:36;13.40;99.90
30063;DHT22;16889;67.864;24.990;2023-07-29T23:25:22;13.50;99.90
30063;DHT22;16889;67.864;24.990;2023-07-29T23:30:08;13.40;99.90
30063;DHT22;16889;67.864;24.990;2023-07-29T23:34:55;13.50;99.90
30063;DHT22;16889;67.864;24.990;2023-07-29T23:39:41;13.50;99.90
30063;DHT22;16889;67.864;24.990;2023-07-29T23:44:26;13.50;99.90
30063;DHT22;16889;67.864;24.990;2023-07-29T23:49:12;13.50;99.90
30063;DHT22;16889;67.864;24.990;2023-07-29T23:53:58;13.40;99.90
30063;DHT22;16889;67.864;24.990;2023-07-29T23:58:44;13.40;99.90
